sensor_id;sensor_type;location;lat;lon;timestamp;temperature;humidity
21023;DHT22;10669;51.076;3.714;2023-02-08T00:02:45;1.40;1.00
21023;DHT22;10669;51.076;3.714;2023-02-08T00:05:11;1.30;1.00
21023;DHT22;10669;51.076;3.714;2023-02-08T00:07:37;1.30;1.00
21023;DHT22;10669;51.076;3.714;2023-02-08T00:10:03;1.20;1.00
21023;DHT22;10669;51.076;3.714;2023-02-08T00:12:32;1.00;1.00
21023;DHT22;10669;51.076;3.714;2023-02-08T00:14:58;1.40;1.00
21023;DHT22;10669;51.076;3.714;2023-02-08T00:17:25;1.70;1.00
21023;DHT22;10669;51.076;3.714;2023-02-08T00:19:54;1.30;1.00
21023;DHT22;10669;51.076;3.714;2023-02-08T00:22:22;0.80;1.00
21023;DHT22;10669;51.076;3.714;2023-02-08T00:24:51;1.00;1.00
21023;DHT22;10669;51.076;3.714;2023-02-08T00:29:46;1.40;1.00
21023;DHT22;10669;51.076;3.714;2023-02-08T00:32:15;0.90;1.00
21023;DHT22;10669;51.076;3.714;2023-02-08T00:34:42;0.90;1.00
21023;DHT22;10669;51.076;3.714;2023-02-08T00:37:09;1.00;1.00
21023;DHT22;10669;51.076;3.714;2023-02-08T00:39:38;1.20;1.00
21023;DHT22;10669;51.076;3.714;2023-02-08T00:42:04;1.00;1.00
21023;DHT22;10669;51.076;3.714;2023-02-08T00:44:31;0.60;1.00
21023;DHT22;10669;51.076;3.714;2023-02-08T00:47:00;0.30;1.00
21023;DHT22;10669;51.076;3.714;2023-02-08T00:49:28;0.50;1.00
21023;DHT22;10669;51.076;3.714;2023-02-08T00:51:57;0.70;1.00
21023;DHT22;10669;51.076;3.714;2023-02-08T00:54:25;0.40;1.00
21023;DHT22;10669;51.076;3.714;2023-02-08T00:56:54;0.20;1.00
21023;DHT22;10669;51.076;3.714;2023-02-08T00:59:25;0.40;1.00
21023;DHT22;10669;51.076;3.714;2023-02-08T01:01:52;0.60;1.00
21023;DHT22;10669;51.076;3.714;2023-02-08T01:04:19;0.60;1.00
21023;DHT22;10669;51.076;3.714;2023-02-08T01:06:47;0.40;1.00
21023;DHT22;10669;51.076;3.714;2023-02-08T01:09:15;0.30;1.00
21023;DHT22;10669;51.076;3.714;2023-02-08T01:11:44;0.30;1.00
21023;DHT22;10669;51.076;3.714;2023-02-08T01:14:10;0.60;1.00
21023;DHT22;10669;51.076;3.714;2023-02-08T01:16:39;0.90;1.00
21023;DHT22;10669;51.076;3.714;2023-02-08T01:19:06;0.70;1.00
21023;DHT22;10669;51.076;3.714;2023-02-08T01:21:32;0.50;1.00
21023;DHT22;10669;51.076;3.714;2023-02-08T01:26:33;1.30;1.00
21023;DHT22;10669;51.076;3.714;2023-02-08T01:29:02;1.10;1.00
21023;DHT22;10669;51.076;3.714;2023-02-08T01:31:36;1.00;1.00
21023;DHT22;10669;51.076;3.714;2023-02-08T01:34:08;0.70;1.00
21023;DHT22;10669;51.076;3.714;2023-02-08T01:36:35;0.80;1.00
21023;DHT22;10669;51.076;3.714;2023-02-08T01:41:34;0.60;1.00
21023;DHT22;10669;51.076;3.714;2023-02-08T01:46:49;0.40;1.00
21023;DHT22;10669;51.076;3.714;2023-02-08T01:49:23;0.20;1.00
21023;DHT22;10669;51.076;3.714;2023-02-08T01:52:10;0.40;1.00
21023;DHT22;10669;51.076;3.714;2023-02-08T01:54:50;0.40;1.00
21023;DHT22;10669;51.076;3.714;2023-02-08T01:57:18;0.50;1.00
21023;DHT22;10669;51.076;3.714;2023-02-08T01:59:47;0.40;1.00
21023;DHT22;10669;51.076;3.714;2023-02-08T02:02:17;0.40;1.00
21023;DHT22;10669;51.076;3.714;2023-02-08T02:04:45;0.50;1.00
21023;DHT22;10669;51.076;3.714;2023-02-08T02:07:15;0.50;1.00
21023;DHT22;10669;51.076;3.714;2023-02-08T02:12:37;0.40;1.00
21023;DHT22;10669;51.076;3.714;2023-02-08T02:17:36;0.80;1.00
21023;DHT22;10669;51.076;3.714;2023-02-08T02:28:48;0.80;1.00
21023;DHT22;10669;51.076;3.714;2023-02-08T02:34:18;0.70;1.00
21023;DHT22;10669;51.076;3.714;2023-02-08T02:42:13;0.60;1.00
21023;DHT22;10669;51.076;3.714;2023-02-08T02:47:44;0.60;1.00
21023;DHT22;10669;51.076;3.714;2023-02-08T02:50:22;0.40;1.00
21023;DHT22;10669;51.076;3.714;2023-02-08T02:53:03;0.50;1.00
21023;DHT22;10669;51.076;3.714;2023-02-08T02:55:31;0.40;1.00
21023;DHT22;10669;51.076;3.714;2023-02-08T02:57:59;0.20;1.00
21023;DHT22;10669;51.076;3.714;2023-02-08T03:00:26;0.30;1.00
21023;DHT22;10669;51.076;3.714;2023-02-08T03:02:57;0.60;1.00
21023;DHT22;10669;51.076;3.714;2023-02-08T03:08:00;0.50;1.00
21023;DHT22;10669;51.076;3.714;2023-02-08T03:13:31;0.30;1.00
21023;DHT22;10669;51.076;3.714;2023-02-08T03:24:22;0.50;1.00
21023;DHT22;10669;51.076;3.714;2023-02-08T03:37:29;0.50;1.00
21023;DHT22;10669;51.076;3.714;2023-02-08T03:40:17;0.60;1.00
21023;DHT22;10669;51.076;3.714;2023-02-08T03:42:45;0.50;1.00
21023;DHT22;10669;51.076;3.714;2023-02-08T03:48:09;0.60;1.00
21023;DHT22;10669;51.076;3.714;2023-02-08T03:50:38;0.60;1.00
21023;DHT22;10669;51.076;3.714;2023-02-08T03:55:35;0.40;1.00
21023;DHT22;10669;51.076;3.714;2023-02-08T04:01:00;-0.50;1.00
21023;DHT22;10669;51.076;3.714;2023-02-08T04:05:56;-0.70;1.00
21023;DHT22;10669;51.076;3.714;2023-02-08T04:10:50;0.10;1.00
21023;DHT22;10669;51.076;3.714;2023-02-08T04:13:29;0.40;1.00
21023;DHT22;10669;51.076;3.714;2023-02-08T04:18:23;0.30;1.00
21023;DHT22;10669;51.076;3.714;2023-02-08T04:20:52;-0.10;1.00
21023;DHT22;10669;51.076;3.714;2023-02-08T04:23:17;-0.20;1.00
21023;DHT22;10669;51.076;3.714;2023-02-08T04:25:46;0.20;1.00
21023;DHT22;10669;51.076;3.714;2023-02-08T04:30:43;0.00;1.00
21023;DHT22;10669;51.076;3.714;2023-02-08T04:33:09;-0.20;1.00
21023;DHT22;10669;51.076;3.714;2023-02-08T04:35:42;-0.20;1.00
21023;DHT22;10669;51.076;3.714;2023-02-08T04:38:09;0.10;1.00
21023;DHT22;10669;51.076;3.714;2023-02-08T04:40:37;0.20;1.00
21023;DHT22;10669;51.076;3.714;2023-02-08T04:43:02;0.30;1.00
21023;DHT22;10669;51.076;3.714;2023-02-08T04:45:31;0.30;1.00
21023;DHT22;10669;51.076;3.714;2023-02-08T04:52:54;0.30;1.00
21023;DHT22;10669;51.076;3.714;2023-02-08T04:55:23;0.50;1.00
21023;DHT22;10669;51.076;3.714;2023-02-08T04:57:51;0.70;1.00
21023;DHT22;10669;51.076;3.714;2023-02-08T05:00:20;0.70;1.00
21023;DHT22;10669;51.076;3.714;2023-02-08T05:02:55;0.60;1.00
21023;DHT22;10669;51.076;3.714;2023-02-08T05:05:25;0.30;1.00
21023;DHT22;10669;51.076;3.714;2023-02-08T05:07:51;0.10;1.00
21023;DHT22;10669;51.076;3.714;2023-02-08T05:10:20;0.20;1.00
21023;DHT22;10669;51.076;3.714;2023-02-08T05:12:49;0.30;1.00
21023;DHT22;10669;51.076;3.714;2023-02-08T05:15:15;0.30;1.00
21023;DHT22;10669;51.076;3.714;2023-02-08T05:17:42;0.30;1.00
21023;DHT22;10669;51.076;3.714;2023-02-08T05:20:14;0.50;1.00
21023;DHT22;10669;51.076;3.714;2023-02-08T05:22:43;0.50;1.00
21023;DHT22;10669;51.076;3.714;2023-02-08T05:25:11;0.40;1.00
21023;DHT22;10669;51.076;3.714;2023-02-08T05:27:36;0.20;1.00
21023;DHT22;10669;51.076;3.714;2023-02-08T05:30:02;0.30;1.00
21023;DHT22;10669;51.076;3.714;2023-02-08T05:35:00;0.40;1.00
21023;DHT22;10669;51.076;3.714;2023-02-08T05:39:54;0.20;1.00
21023;DHT22;10669;51.076;3.714;2023-02-08T05:42:22;0.40;1.00
21023;DHT22;10669;51.076;3.714;2023-02-08T05:44:51;0.40;1.00
21023;DHT22;10669;51.076;3.714;2023-02-08T05:49:49;0.20;1.00
21023;DHT22;10669;51.076;3.714;2023-02-08T05:52:18;0.00;1.00
21023;DHT22;10669;51.076;3.714;2023-02-08T05:54:44;0.30;1.00
21023;DHT22;10669;51.076;3.714;2023-02-08T05:57:10;0.30;1.00
21023;DHT22;10669;51.076;3.714;2023-02-08T05:59:35;0.00;1.00
21023;DHT22;10669;51.076;3.714;2023-02-08T06:02:04;-0.10;1.00
21023;DHT22;10669;51.076;3.714;2023-02-08T06:04:30;0.00;1.00
21023;DHT22;10669;51.076;3.714;2023-02-08T06:07:02;0.20;1.00
21023;DHT22;10669;51.076;3.714;2023-02-08T06:09:27;0.10;1.00
21023;DHT22;10669;51.076;3.714;2023-02-08T06:11:56;0.10;1.00
21023;DHT22;10669;51.076;3.714;2023-02-08T06:14:22;0.20;1.00
21023;DHT22;10669;51.076;3.714;2023-02-08T06:16:53;0.20;1.00
21023;DHT22;10669;51.076;3.714;2023-02-08T06:19:21;-0.10;1.00
21023;DHT22;10669;51.076;3.714;2023-02-08T06:21:47;-0.20;1.00
21023;DHT22;10669;51.076;3.714;2023-02-08T06:24:16;-0.10;1.00
21023;DHT22;10669;51.076;3.714;2023-02-08T06:26:43;-0.20;1.00
21023;DHT22;10669;51.076;3.714;2023-02-08T06:29:11;-0.60;1.00
21023;DHT22;10669;51.076;3.714;2023-02-08T06:31:37;-0.90;1.00
21023;DHT22;10669;51.076;3.714;2023-02-08T06:34:03;-0.80;1.00
21023;DHT22;10669;51.076;3.714;2023-02-08T06:36:31;-0.60;1.00
21023;DHT22;10669;51.076;3.714;2023-02-08T06:41:25;-0.40;1.00
21023;DHT22;10669;51.076;3.714;2023-02-08T06:43:53;-0.50;1.00
21023;DHT22;10669;51.076;3.714;2023-02-08T06:46:20;-0.40;1.00
21023;DHT22;10669;51.076;3.714;2023-02-08T06:48:46;-0.10;1.00
21023;DHT22;10669;51.076;3.714;2023-02-08T06:51:15;-0.10;1.00
21023;DHT22;10669;51.076;3.714;2023-02-08T06:53:40;-0.30;1.00
21023;DHT22;10669;51.076;3.714;2023-02-08T06:56:06;-0.30;1.00
21023;DHT22;10669;51.076;3.714;2023-02-08T06:58:34;-0.10;1.00
21023;DHT22;10669;51.076;3.714;2023-02-08T07:01:02;-0.60;1.00
21023;DHT22;10669;51.076;3.714;2023-02-08T07:03:28;-0.80;1.00
21023;DHT22;10669;51.076;3.714;2023-02-08T07:05:57;-1.00;1.00
21023;DHT22;10669;51.076;3.714;2023-02-08T07:08:23;-0.90;1.00
21023;DHT22;10669;51.076;3.714;2023-02-08T07:10:49;-0.50;1.00
21023;DHT22;10669;51.076;3.714;2023-02-08T07:13:16;-0.20;1.00
21023;DHT22;10669;51.076;3.714;2023-02-08T07:15:42;-0.10;1.00
21023;DHT22;10669;51.076;3.714;2023-02-08T07:18:08;-0.30;1.00
21023;DHT22;10669;51.076;3.714;2023-02-08T07:23:06;-0.20;1.00
21023;DHT22;10669;51.076;3.714;2023-02-08T07:25:31;0.00;1.00
21023;DHT22;10669;51.076;3.714;2023-02-08T07:27:58;0.30;1.00
21023;DHT22;10669;51.076;3.714;2023-02-08T07:30:26;0.20;1.00
21023;DHT22;10669;51.076;3.714;2023-02-08T07:35:23;0.00;1.00
21023;DHT22;10669;51.076;3.714;2023-02-08T07:37:49;-0.10;1.00
21023;DHT22;10669;51.076;3.714;2023-02-08T07:40:18;0.00;1.00
21023;DHT22;10669;51.076;3.714;2023-02-08T07:42:45;0.10;1.00
21023;DHT22;10669;51.076;3.714;2023-02-08T07:45:10;0.10;1.00
21023;DHT22;10669;51.076;3.714;2023-02-08T07:47:37;0.20;1.00
21023;DHT22;10669;51.076;3.714;2023-02-08T07:50:09;0.20;1.00
21023;DHT22;10669;51.076;3.714;2023-02-08T07:52:34;0.30;1.00
21023;DHT22;10669;51.076;3.714;2023-02-08T07:55:00;0.00;1.00
21023;DHT22;10669;51.076;3.714;2023-02-08T07:57:27;-0.20;1.00
21023;DHT22;10669;51.076;3.714;2023-02-08T07:59:52;0.10;1.00
21023;DHT22;10669;51.076;3.714;2023-02-08T08:02:18;0.50;1.00
21023;DHT22;10669;51.076;3.714;2023-02-08T08:04:44;0.70;1.00
21023;DHT22;10669;51.076;3.714;2023-02-08T08:07:11;0.80;1.00
21023;DHT22;10669;51.076;3.714;2023-02-08T08:09:37;1.00;1.00
21023;DHT22;10669;51.076;3.714;2023-02-08T08:12:04;0.90;1.00
21023;DHT22;10669;51.076;3.714;2023-02-08T08:14:29;0.80;1.00
21023;DHT22;10669;51.076;3.714;2023-02-08T08:16:58;0.80;1.00
21023;DHT22;10669;51.076;3.714;2023-02-08T08:19:27;0.70;1.00
21023;DHT22;10669;51.076;3.714;2023-02-08T08:21:53;0.70;1.00
21023;DHT22;10669;51.076;3.714;2023-02-08T08:24:22;0.60;1.00
21023;DHT22;10669;51.076;3.714;2023-02-08T08:26:50;0.40;1.00
21023;DHT22;10669;51.076;3.714;2023-02-08T08:29:19;0.40;1.00
21023;DHT22;10669;51.076;3.714;2023-02-08T08:31:45;0.70;1.00
21023;DHT22;10669;51.076;3.714;2023-02-08T08:34:13;1.10;1.00
21023;DHT22;10669;51.076;3.714;2023-02-08T08:36:41;1.30;1.00
21023;DHT22;10669;51.076;3.714;2023-02-08T08:39:07;1.30;1.00
21023;DHT22;10669;51.076;3.714;2023-02-08T08:44:03;0.80;1.00
21023;DHT22;10669;51.076;3.714;2023-02-08T08:46:29;0.90;1.00
21023;DHT22;10669;51.076;3.714;2023-02-08T08:48:58;0.90;1.00
21023;DHT22;10669;51.076;3.714;2023-02-08T08:51:23;1.30;1.00
21023;DHT22;10669;51.076;3.714;2023-02-08T08:53:49;1.60;1.00
21023;DHT22;10669;51.076;3.714;2023-02-08T08:56:14;1.80;1.00
21023;DHT22;10669;51.076;3.714;2023-02-08T08:58:40;1.80;1.00
21023;DHT22;10669;51.076;3.714;2023-02-08T09:01:07;1.80;1.00
21023;DHT22;10669;51.076;3.714;2023-02-08T09:03:34;1.90;1.00
21023;DHT22;10669;51.076;3.714;2023-02-08T09:06:03;1.90;1.00
21023;DHT22;10669;51.076;3.714;2023-02-08T09:08:28;1.90;1.00
21023;DHT22;10669;51.076;3.714;2023-02-08T09:10:56;1.90;1.00
21023;DHT22;10669;51.076;3.714;2023-02-08T09:13:23;1.80;1.00
21023;DHT22;10669;51.076;3.714;2023-02-08T09:15:50;1.80;1.00
21023;DHT22;10669;51.076;3.714;2023-02-08T09:20:46;2.00;1.00
21023;DHT22;10669;51.076;3.714;2023-02-08T09:23:14;2.00;1.00
21023;DHT22;10669;51.076;3.714;2023-02-08T09:25:43;1.70;1.00
21023;DHT22;10669;51.076;3.714;2023-02-08T09:28:08;1.70;1.00
21023;DHT22;10669;51.076;3.714;2023-02-08T09:33:02;1.70;1.00
21023;DHT22;10669;51.076;3.714;2023-02-08T09:35:28;1.80;1.00
21023;DHT22;10669;51.076;3.714;2023-02-08T09:37:54;1.70;1.00
21023;DHT22;10669;51.076;3.714;2023-02-08T09:40:26;1.80;1.00
21023;DHT22;10669;51.076;3.714;2023-02-08T09:45:47;2.10;1.00
21023;DHT22;10669;51.076;3.714;2023-02-08T09:48:21;2.20;1.00
21023;DHT22;10669;51.076;3.714;2023-02-08T09:51:03;2.30;1.00
21023;DHT22;10669;51.076;3.714;2023-02-08T09:56:00;2.70;1.00
21023;DHT22;10669;51.076;3.714;2023-02-08T09:58:28;3.00;1.00
21023;DHT22;10669;51.076;3.714;2023-02-08T10:00:56;3.00;1.00
21023;DHT22;10669;51.076;3.714;2023-02-08T10:03:26;3.00;1.00
21023;DHT22;10669;51.076;3.714;2023-02-08T10:05:55;2.90;1.00
21023;DHT22;10669;51.076;3.714;2023-02-08T10:08:23;2.90;1.00
21023;DHT22;10669;51.076;3.714;2023-02-08T10:10:58;3.20;1.00
21023;DHT22;10669;51.076;3.714;2023-02-08T10:18:39;3.40;1.00
21023;DHT22;10669;51.076;3.714;2023-02-08T10:23:56;3.30;1.00
21023;DHT22;10669;51.076;3.714;2023-02-08T10:29:28;3.80;99.90
21023;DHT22;10669;51.076;3.714;2023-02-08T10:32:14;3.80;99.90
21023;DHT22;10669;51.076;3.714;2023-02-08T10:34:45;3.20;99.90
21023;DHT22;10669;51.076;3.714;2023-02-08T10:37:19;3.20;1.00
21023;DHT22;10669;51.076;3.714;2023-02-08T10:42:18;3.30;1.00
21023;DHT22;10669;51.076;3.714;2023-02-08T10:52:43;4.50;1.00
21023;DHT22;10669;51.076;3.714;2023-02-08T10:55:17;4.70;15.80
21023;DHT22;10669;51.076;3.714;2023-02-08T11:02:39;4.80;1.00
21023;DHT22;10669;51.076;3.714;2023-02-08T11:05:11;4.70;1.00
21023;DHT22;10669;51.076;3.714;2023-02-08T11:07:39;4.80;99.90
21023;DHT22;10669;51.076;3.714;2023-02-08T11:15:37;5.40;99.90
21023;DHT22;10669;51.076;3.714;2023-02-08T11:18:05;5.30;1.00
21023;DHT22;10669;51.076;3.714;2023-02-08T11:20:38;5.40;99.90
21023;DHT22;10669;51.076;3.714;2023-02-08T11:25:36;5.60;1.00
21023;DHT22;10669;51.076;3.714;2023-02-08T11:28:08;5.40;1.00
21023;DHT22;10669;51.076;3.714;2023-02-08T11:30:58;5.50;1.00
21023;DHT22;10669;51.076;3.714;2023-02-08T11:33:24;5.70;99.90
21023;DHT22;10669;51.076;3.714;2023-02-08T11:35:52;5.60;47.50
21023;DHT22;10669;51.076;3.714;2023-02-08T11:38:18;5.70;90.90
21023;DHT22;10669;51.076;3.714;2023-02-08T11:40:46;5.80;1.00
21023;DHT22;10669;51.076;3.714;2023-02-08T11:43:25;6.00;1.00
21023;DHT22;10669;51.076;3.714;2023-02-08T11:45:51;6.20;1.00
21023;DHT22;10669;51.076;3.714;2023-02-08T11:51:05;6.40;99.90
21023;DHT22;10669;51.076;3.714;2023-02-08T11:56:20;6.50;1.00
21023;DHT22;10669;51.076;3.714;2023-02-08T12:01:44;6.40;99.90
21023;DHT22;10669;51.076;3.714;2023-02-08T12:04:12;6.50;1.00
21023;DHT22;10669;51.076;3.714;2023-02-08T12:22:30;6.70;1.00
21023;DHT22;10669;51.076;3.714;2023-02-08T12:27:57;7.10;1.00
21023;DHT22;10669;51.076;3.714;2023-02-08T12:30:31;7.30;1.00
21023;DHT22;10669;51.076;3.714;2023-02-08T12:57:09;7.80;1.00
21023;DHT22;10669;51.076;3.714;2023-02-08T12:59:39;7.60;1.00
21023;DHT22;10669;51.076;3.714;2023-02-08T13:04:53;7.60;99.90
21023;DHT22;10669;51.076;3.714;2023-02-08T13:07:28;7.90;99.90
21023;DHT22;10669;51.076;3.714;2023-02-08T13:12:31;8.10;99.90
21023;DHT22;10669;51.076;3.714;2023-02-08T13:15:06;8.10;99.90
21023;DHT22;10669;51.076;3.714;2023-02-08T13:17:44;8.10;99.90
21023;DHT22;10669;51.076;3.714;2023-02-08T13:23:02;7.80;99.90
21023;DHT22;10669;51.076;3.714;2023-02-08T13:25:31;7.90;99.90
21023;DHT22;10669;51.076;3.714;2023-02-08T13:30:32;8.20;99.90
21023;DHT22;10669;51.076;3.714;2023-02-08T13:33:10;8.30;99.90
21023;DHT22;10669;51.076;3.714;2023-02-08T13:35:39;8.40;99.90
21023;DHT22;10669;51.076;3.714;2023-02-08T13:41:05;8.30;99.90
21023;DHT22;10669;51.076;3.714;2023-02-08T13:43:41;8.30;99.90
21023;DHT22;10669;51.076;3.714;2023-02-08T13:46:09;8.30;99.90
21023;DHT22;10669;51.076;3.714;2023-02-08T13:48:39;8.30;99.90
21023;DHT22;10669;51.076;3.714;2023-02-08T13:51:08;8.50;99.90
21023;DHT22;10669;51.076;3.714;2023-02-08T14:04:39;8.40;99.90
21023;DHT22;10669;51.076;3.714;2023-02-08T14:09:42;8.10;97.70
21023;DHT22;10669;51.076;3.714;2023-02-08T14:12:29;8.40;99.20
21023;DHT22;10669;51.076;3.714;2023-02-08T14:17:46;8.80;92.80
21023;DHT22;10669;51.076;3.714;2023-02-08T14:22:48;8.80;67.40
21023;DHT22;10669;51.076;3.714;2023-02-08T14:25:37;9.00;61.50
21023;DHT22;10669;51.076;3.714;2023-02-08T14:28:06;9.10;54.30
21023;DHT22;10669;51.076;3.714;2023-02-08T14:30:46;9.20;44.40
21023;DHT22;10669;51.076;3.714;2023-02-08T14:33:16;8.80;42.20
21023;DHT22;10669;51.076;3.714;2023-02-08T14:35:54;8.70;28.90
21023;DHT22;10669;51.076;3.714;2023-02-08T14:45:47;9.10;31.00
21023;DHT22;10669;51.076;3.714;2023-02-08T14:51:17;8.90;18.20
21023;DHT22;10669;51.076;3.714;2023-02-08T14:54:00;8.50;15.90
21023;DHT22;10669;51.076;3.714;2023-02-08T14:56:34;8.50;17.20
21023;DHT22;10669;51.076;3.714;2023-02-08T14:59:14;8.60;19.70
21023;DHT22;10669;51.076;3.714;2023-02-08T15:01:56;8.70;15.10
21023;DHT22;10669;51.076;3.714;2023-02-08T15:04:25;8.90;20.00
21023;DHT22;10669;51.076;3.714;2023-02-08T15:06:53;9.10;24.60
21023;DHT22;10669;51.076;3.714;2023-02-08T15:09:26;9.20;20.60
21023;DHT22;10669;51.076;3.714;2023-02-08T15:12:06;9.40;21.10
21023;DHT22;10669;51.076;3.714;2023-02-08T15:14:35;9.80;26.20
21023;DHT22;10669;51.076;3.714;2023-02-08T15:17:04;10.30;22.80
21023;DHT22;10669;51.076;3.714;2023-02-08T15:24:53;11.90;22.10
21023;DHT22;10669;51.076;3.714;2023-02-08T15:27:21;12.20;8.00
21023;DHT22;10669;51.076;3.714;2023-02-08T15:29:51;13.20;12.10
21023;DHT22;10669;51.076;3.714;2023-02-08T15:32:20;14.10;10.30
21023;DHT22;10669;51.076;3.714;2023-02-08T15:34:59;14.50;1.00
21023;DHT22;10669;51.076;3.714;2023-02-08T15:37:26;14.90;1.00
21023;DHT22;10669;51.076;3.714;2023-02-08T15:44:53;13.40;1.00
21023;DHT22;10669;51.076;3.714;2023-02-08T15:49:53;12.70;1.00
21023;DHT22;10669;51.076;3.714;2023-02-08T15:52:21;12.10;1.00
21023;DHT22;10669;51.076;3.714;2023-02-08T15:54:50;11.60;1.00
21023;DHT22;10669;51.076;3.714;2023-02-08T15:59:56;11.30;1.00
21023;DHT22;10669;51.076;3.714;2023-02-08T16:02:30;10.90;1.00
21023;DHT22;10669;51.076;3.714;2023-02-08T16:04:58;10.40;1.00
21023;DHT22;10669;51.076;3.714;2023-02-08T16:07:27;10.00;1.00
21023;DHT22;10669;51.076;3.714;2023-02-08T16:09:58;9.50;1.00
21023;DHT22;10669;51.076;3.714;2023-02-08T16:12:27;9.30;3.20
21023;DHT22;10669;51.076;3.714;2023-02-08T16:14:56;9.10;11.70
21023;DHT22;10669;51.076;3.714;2023-02-08T16:17:36;8.80;22.20
21023;DHT22;10669;51.076;3.714;2023-02-08T16:22:53;8.60;37.30
21023;DHT22;10669;51.076;3.714;2023-02-08T16:28:00;8.30;49.60
21023;DHT22;10669;51.076;3.714;2023-02-08T16:30:25;7.90;52.40
21023;DHT22;10669;51.076;3.714;2023-02-08T16:32:52;7.40;51.40
21023;DHT22;10669;51.076;3.714;2023-02-08T16:35:21;7.40;95.40
21023;DHT22;10669;51.076;3.714;2023-02-08T16:37:52;7.60;99.90
21023;DHT22;10669;51.076;3.714;2023-02-08T16:51:49;7.30;99.90
21023;DHT22;10669;51.076;3.714;2023-02-08T16:53:59;7.30;99.90
21023;DHT22;10669;51.076;3.714;2023-02-08T16:56:28;7.20;99.90
21023;DHT22;10669;51.076;3.714;2023-02-08T16:58:54;7.40;99.90
21023;DHT22;10669;51.076;3.714;2023-02-08T17:01:22;7.60;99.90
21023;DHT22;10669;51.076;3.714;2023-02-08T17:03:48;7.50;99.90
21023;DHT22;10669;51.076;3.714;2023-02-08T17:06:17;7.40;99.90
21023;DHT22;10669;51.076;3.714;2023-02-08T17:08:45;7.30;99.90
21023;DHT22;10669;51.076;3.714;2023-02-08T17:13:40;7.00;99.90
21023;DHT22;10669;51.076;3.714;2023-02-08T17:18:34;6.70;99.90
21023;DHT22;10669;51.076;3.714;2023-02-08T17:21:03;6.70;99.90
21023;DHT22;10669;51.076;3.714;2023-02-08T17:23:33;6.60;1.00
21023;DHT22;10669;51.076;3.714;2023-02-08T17:25:58;6.40;1.00
21023;DHT22;10669;51.076;3.714;2023-02-08T17:30:58;6.30;1.00
21023;DHT22;10669;51.076;3.714;2023-02-08T17:35:53;6.20;1.00
21023;DHT22;10669;51.076;3.714;2023-02-08T17:38:22;6.20;1.00
21023;DHT22;10669;51.076;3.714;2023-02-08T17:40:53;6.20;1.00
21023;DHT22;10669;51.076;3.714;2023-02-08T17:43:22;6.10;1.00
21023;DHT22;10669;51.076;3.714;2023-02-08T17:45:50;6.20;1.00
21023;DHT22;10669;51.076;3.714;2023-02-08T17:48:23;6.20;1.00
21023;DHT22;10669;51.076;3.714;2023-02-08T17:50:50;6.00;1.00
21023;DHT22;10669;51.076;3.714;2023-02-08T17:53:20;5.70;1.00
21023;DHT22;10669;51.076;3.714;2023-02-08T17:55:45;5.70;99.90
21023;DHT22;10669;51.076;3.714;2023-02-08T17:58:11;5.60;99.90
21023;DHT22;10669;51.076;3.714;2023-02-08T18:03:09;5.70;99.90
21023;DHT22;10669;51.076;3.714;2023-02-08T18:08:06;5.50;99.90
21023;DHT22;10669;51.076;3.714;2023-02-08T18:10:37;5.50;99.90
21023;DHT22;10669;51.076;3.714;2023-02-08T18:13:04;5.60;99.90
21023;DHT22;10669;51.076;3.714;2023-02-08T18:15:35;5.60;1.00
21023;DHT22;10669;51.076;3.714;2023-02-08T18:18:02;5.60;99.90
21023;DHT22;10669;51.076;3.714;2023-02-08T18:22:56;5.30;1.00
21023;DHT22;10669;51.076;3.714;2023-02-08T18:27:54;5.30;1.00
21023;DHT22;10669;51.076;3.714;2023-02-08T18:30:26;5.30;99.90
21023;DHT22;10669;51.076;3.714;2023-02-08T18:32:55;5.20;1.00
21023;DHT22;10669;51.076;3.714;2023-02-08T18:35:21;5.20;67.50
21023;DHT22;10669;51.076;3.714;2023-02-08T18:37:48;5.40;1.00
21023;DHT22;10669;51.076;3.714;2023-02-08T18:40:16;5.50;1.00
21023;DHT22;10669;51.076;3.714;2023-02-08T18:42:45;5.20;99.90
21023;DHT22;10669;51.076;3.714;2023-02-08T18:47:39;4.80;1.00
21023;DHT22;10669;51.076;3.714;2023-02-08T18:50:05;4.60;99.90
21023;DHT22;10669;51.076;3.714;2023-02-08T18:52:31;4.80;33.40
21023;DHT22;10669;51.076;3.714;2023-02-08T18:54:57;4.90;1.00
21023;DHT22;10669;51.076;3.714;2023-02-08T18:57:24;4.90;1.00
21023;DHT22;10669;51.076;3.714;2023-02-08T18:59:50;4.80;1.00
21023;DHT22;10669;51.076;3.714;2023-02-08T19:02:19;4.90;1.00
21023;DHT22;10669;51.076;3.714;2023-02-08T19:04:49;4.80;99.90
21023;DHT22;10669;51.076;3.714;2023-02-08T19:07:15;4.60;99.90
21023;DHT22;10669;51.076;3.714;2023-02-08T19:09:42;4.40;99.90
21023;DHT22;10669;51.076;3.714;2023-02-08T19:12:11;4.40;1.00
21023;DHT22;10669;51.076;3.714;2023-02-08T19:14:40;4.40;15.70
21023;DHT22;10669;51.076;3.714;2023-02-08T19:17:10;4.30;99.90
21023;DHT22;10669;51.076;3.714;2023-02-08T19:19:39;4.20;99.90
21023;DHT22;10669;51.076;3.714;2023-02-08T19:22:05;4.40;1.00
21023;DHT22;10669;51.076;3.714;2023-02-08T19:24:33;4.30;92.00
21023;DHT22;10669;51.076;3.714;2023-02-08T19:26:58;4.20;99.90
21023;DHT22;10669;51.076;3.714;2023-02-08T19:31:54;4.30;1.00
21023;DHT22;10669;51.076;3.714;2023-02-08T19:34:23;4.30;1.00
21023;DHT22;10669;51.076;3.714;2023-02-08T19:36:52;4.20;1.00
21023;DHT22;10669;51.076;3.714;2023-02-08T19:39:19;4.20;99.90
21023;DHT22;10669;51.076;3.714;2023-02-08T19:41:47;4.20;1.00
21023;DHT22;10669;51.076;3.714;2023-02-08T19:44:15;4.20;1.00
21023;DHT22;10669;51.076;3.714;2023-02-08T19:46:41;3.90;1.00
21023;DHT22;10669;51.076;3.714;2023-02-08T19:49:10;3.80;99.90
21023;DHT22;10669;51.076;3.714;2023-02-08T19:51:37;3.80;99.90
21023;DHT22;10669;51.076;3.714;2023-02-08T19:54:06;3.90;1.00
21023;DHT22;10669;51.076;3.714;2023-02-08T19:59:06;3.60;1.00
21023;DHT22;10669;51.076;3.714;2023-02-08T20:01:34;3.70;1.00
21023;DHT22;10669;51.076;3.714;2023-02-08T20:04:00;3.90;99.90
21023;DHT22;10669;51.076;3.714;2023-02-08T20:06:27;3.90;1.00
21023;DHT22;10669;51.076;3.714;2023-02-08T20:08:54;3.70;1.00
21023;DHT22;10669;51.076;3.714;2023-02-08T20:11:23;3.80;1.00
21023;DHT22;10669;51.076;3.714;2023-02-08T20:13:51;3.80;1.00
21023;DHT22;10669;51.076;3.714;2023-02-08T20:16:18;3.70;1.00
21023;DHT22;10669;51.076;3.714;2023-02-08T20:18:47;3.50;1.00
21023;DHT22;10669;51.076;3.714;2023-02-08T20:21:19;3.50;1.00
21023;DHT22;10669;51.076;3.714;2023-02-08T20:23:45;3.50;1.00
21023;DHT22;10669;51.076;3.714;2023-02-08T20:28:39;3.40;29.60
21023;DHT22;10669;51.076;3.714;2023-02-08T20:31:10;3.50;1.00
21023;DHT22;10669;51.076;3.714;2023-02-08T20:33:36;3.60;1.00
21023;DHT22;10669;51.076;3.714;2023-02-08T20:36:10;3.40;43.70
21023;DHT22;10669;51.076;3.714;2023-02-08T20:38:37;3.50;99.90
21023;DHT22;10669;51.076;3.714;2023-02-08T20:41:15;3.40;1.00
21023;DHT22;10669;51.076;3.714;2023-02-08T20:43:41;3.40;1.00
21023;DHT22;10669;51.076;3.714;2023-02-08T20:46:13;3.10;1.00
21023;DHT22;10669;51.076;3.714;2023-02-08T20:48:38;3.20;99.90
21023;DHT22;10669;51.076;3.714;2023-02-08T20:53:32;3.30;34.50
21023;DHT22;10669;51.076;3.714;2023-02-08T20:56:03;3.10;99.90
21023;DHT22;10669;51.076;3.714;2023-02-08T20:58:28;2.90;1.00
21023;DHT22;10669;51.076;3.714;2023-02-08T21:00:57;2.80;1.00
21023;DHT22;10669;51.076;3.714;2023-02-08T21:03:22;3.00;73.70
21023;DHT22;10669;51.076;3.714;2023-02-08T21:08:16;3.10;1.00
21023;DHT22;10669;51.076;3.714;2023-02-08T21:13:11;2.90;25.80
21023;DHT22;10669;51.076;3.714;2023-02-08T21:15:40;3.00;1.00